createdAt,value
2023-03-03T00:01:30.947Z,7.50
2023-03-03T00:03:58.818Z,8.25
2023-03-03T00:06:26.924Z,8.00
2023-03-03T00:08:54.850Z,8.00
2023-03-03T00:11:23.008Z,8.00
2023-03-03T00:13:52.115Z,8.50
2023-03-03T00:16:25.030Z,8.00
2023-03-03T00:18:54.777Z,8.00
2023-03-03T00:21:30.512Z,9.00
2023-03-03T00:24:16.985Z,8.75
2023-03-03T00:26:45.950Z,8.50
2023-03-03T00:29:31.498Z,8.25
2023-03-03T00:32:11.716Z,9.25
2023-03-03T00:34:41.767Z,9.00
2023-03-03T00:37:21.218Z,9.00
2023-03-03T00:39:49.155Z,8.00
2023-03-03T00:42:17.898Z,8.00
2023-03-03T00:44:46.149Z,8.25
2023-03-03T00:47:31.761Z,7.50
2023-03-03T00:50:26.735Z,8.00
2023-03-03T00:53:00.886Z,8.50
2023-03-03T00:55:28.880Z,9.00
2023-03-03T00:57:56.813Z,8.50
2023-03-03T01:00:24.844Z,8.75
2023-03-03T01:02:53.158Z,9.00
2023-03-03T01:05:21.185Z,9.00
2023-03-03T01:07:50.522Z,9.00
2023-03-03T01:10:18.561Z,9.00
2023-03-03T01:12:46.761Z,10.00
2023-03-03T01:15:15.278Z,8.50
2023-03-03T01:17:43.280Z,9.75
2023-03-03T01:20:12.628Z,8.50
2023-03-03T01:22:40.819Z,9.00
2023-03-03T01:25:10.650Z,9.00
2023-03-03T01:27:38.524Z,9.00
2023-03-03T01:30:09.150Z,9.00
2023-03-03T01:32:37.318Z,9.00
2023-03-03T01:35:05.651Z,9.25
2023-03-03T01:37:35.156Z,8.75
2023-03-03T01:40:03.107Z,10.00
2023-03-03T01:42:32.713Z,8.00
2023-03-03T01:45:15.886Z,8.50
2023-03-03T01:47:44.672Z,9.00
2023-03-03T01:50:13.260Z,9.25
2023-03-03T01:52:43.165Z,8.00
2023-03-03T01:55:13.388Z,8.00
2023-03-03T01:57:44.159Z,9.25
2023-03-03T02:00:13.210Z,9.00
2023-03-03T02:02:41.388Z,9.00
2023-03-03T02:05:09.726Z,9.00
2023-03-03T02:07:37.587Z,8.50
2023-03-03T02:10:06.798Z,9.50
2023-03-03T02:12:36.093Z,9.50
2023-03-03T02:15:17.422Z,8.00
2023-03-03T02:17:45.526Z,8.50
2023-03-03T02:20:14.397Z,9.50
2023-03-03T02:22:45.476Z,8.75
2023-03-03T02:25:16.149Z,8.50
2023-03-03T02:27:45.475Z,8.50
2023-03-03T02:30:16.301Z,8.50
2023-03-03T02:32:44.447Z,8.75
2023-03-03T02:35:28.490Z,9.50
2023-03-03T02:37:57.291Z,10.00
2023-03-03T02:40:25.742Z,8.00
2023-03-03T02:42:55.355Z,8.25
2023-03-03T02:45:23.514Z,8.75
2023-03-03T02:47:51.909Z,8.00
2023-03-03T02:50:19.855Z,8.25
2023-03-03T02:52:48.035Z,9.00
2023-03-03T02:55:16.082Z,9.00
2023-03-03T02:57:44.010Z,9.50
2023-03-03T03:00:14.166Z,8.00
2023-03-03T03:02:42.386Z,9.00
2023-03-03T03:05:10.541Z,8.00
2023-03-03T03:07:38.450Z,7.75
2023-03-03T03:10:07.098Z,7.75
2023-03-03T03:12:35.321Z,8.75
2023-03-03T03:15:03.243Z,8.00
2023-03-03T03:17:32.554Z,7.75
2023-03-03T03:20:00.502Z,8.00
2023-03-03T03:22:28.660Z,7.00
2023-03-03T03:24:56.840Z,8.50
2023-03-03T03:27:24.782Z,7.25
2023-03-03T03:29:52.648Z,8.75
2023-03-03T03:32:20.865Z,8.50
2023-03-03T03:34:50.318Z,7.00
2023-03-03T03:37:18.251Z,8.00
2023-03-03T03:39:46.200Z,8.00
2023-03-03T03:42:14.472Z,8.25
2023-03-03T03:44:42.491Z,8.00
2023-03-03T03:47:10.424Z,8.00
2023-03-03T03:49:38.336Z,8.00
2023-03-03T03:52:07.913Z,8.00
2023-03-03T03:54:35.811Z,8.00
2023-03-03T03:57:03.810Z,8.00
2023-03-03T03:59:31.683Z,8.00
2023-03-03T04:01:59.920Z,8.00
2023-03-03T04:04:27.885Z,7.00
2023-03-03T04:06:55.792Z,7.00
2023-03-03T04:09:25.053Z,8.00
2023-03-03T04:11:53.237Z,7.00
2023-03-03T04:14:21.153Z,7.25
2023-03-03T04:16:49.065Z,6.75
2023-03-03T04:19:16.986Z,8.25
2023-03-03T04:21:45.168Z,7.00
2023-03-03T04:24:13.077Z,8.00
2023-03-03T04:26:42.401Z,7.25
2023-03-03T04:29:10.299Z,8.00
2023-03-03T04:31:38.458Z,7.00
2023-03-03T04:34:06.387Z,7.00
2023-03-03T04:36:34.261Z,7.00
2023-03-03T04:39:02.164Z,7.25
2023-03-03T04:41:30.402Z,7.50
2023-03-03T04:43:59.651Z,7.00
2023-03-03T04:46:27.637Z,6.75
2023-03-03T04:48:55.617Z,8.00
2023-03-03T04:51:23.787Z,8.00
2023-03-03T04:53:51.665Z,7.25
2023-03-03T04:56:19.600Z,7.00
2023-03-03T04:58:47.514Z,7.00
2023-03-03T05:01:17.176Z,6.75
2023-03-03T05:03:45.150Z,7.00
2023-03-03T05:06:13.027Z,6.75
2023-03-03T05:08:43.152Z,6.00
2023-03-03T05:11:11.375Z,7.00
2023-03-03T05:13:39.297Z,7.00
2023-03-03T05:16:08.004Z,8.75
2023-03-03T05:18:37.695Z,7.50
2023-03-03T05:21:06.252Z,8.00
2023-03-03T05:23:34.111Z,8.25
2023-03-03T05:26:02.013Z,7.00
2023-03-03T05:28:29.916Z,7.50
2023-03-03T05:30:58.270Z,7.00
2023-03-03T05:33:26.219Z,7.25
2023-03-03T05:35:56.753Z,6.75
2023-03-03T05:38:24.856Z,5.75
2023-03-03T05:40:54.325Z,6.00
2023-03-03T05:43:22.300Z,7.25
2023-03-03T05:45:55.355Z,7.75
2023-03-03T05:48:23.240Z,6.00
2023-03-03T05:50:51.452Z,7.00
2023-03-03T05:53:20.803Z,7.00
2023-03-03T05:55:48.694Z,7.00
2023-03-03T05:58:16.580Z,7.00
2023-03-03T06:00:44.826Z,7.25
2023-03-03T06:03:12.809Z,6.75
2023-03-03T06:05:40.748Z,7.00
2023-03-03T06:08:08.695Z,7.25
2023-03-03T06:10:38.290Z,6.75
2023-03-03T06:13:06.164Z,6.25
2023-03-03T06:15:34.156Z,6.50
2023-03-03T06:18:03.398Z,6.75
2023-03-03T06:20:31.724Z,7.00
2023-03-03T06:22:59.772Z,7.00
2023-03-03T06:25:27.990Z,6.75
2023-03-03T06:27:57.326Z,6.50
2023-03-03T06:30:26.995Z,6.75
2023-03-03T06:32:55.242Z,6.75
2023-03-03T06:35:23.228Z,6.50
2023-03-03T06:37:51.626Z,7.00
2023-03-03T06:40:19.908Z,7.00
2023-03-03T06:42:47.836Z,7.00
2023-03-03T06:45:17.297Z,6.50
2023-03-03T06:47:45.224Z,6.00
2023-03-03T06:50:13.212Z,6.25
2023-03-03T06:52:41.409Z,7.00
2023-03-03T06:55:13.338Z,5.25
2023-03-03T06:57:42.275Z,5.75
2023-03-03T07:00:20.334Z,6.00
2023-03-03T07:02:48.793Z,6.00
2023-03-03T07:05:17.379Z,6.00
2023-03-03T07:07:45.411Z,7.00
2023-03-03T07:10:22.042Z,6.00
2023-03-03T07:12:49.950Z,6.25
2023-03-03T07:15:21.602Z,6.00
2023-03-03T07:17:51.310Z,6.00
2023-03-03T07:20:22.164Z,5.75
2023-03-03T07:22:50.322Z,7.00
2023-03-03T07:25:23.971Z,6.00
2023-03-03T07:27:51.852Z,6.00
2023-03-03T07:30:26.487Z,6.25
2023-03-03T07:32:56.541Z,7.00
2023-03-03T07:35:40.290Z,5.75
2023-03-03T07:38:32.044Z,6.75
2023-03-03T07:41:00.563Z,6.00
2023-03-03T07:43:32.478Z,6.00
2023-03-03T07:46:16.834Z,6.00
2023-03-03T07:48:44.748Z,6.00
2023-03-03T07:51:20.276Z,6.00
2023-03-03T07:53:48.203Z,5.50
2023-03-03T07:56:24.087Z,5.00
2023-03-03T07:58:52.007Z,6.25
2023-03-03T08:01:46.055Z,5.00
2023-03-03T08:04:19.359Z,6.00
2023-03-03T08:06:51.467Z,5.75
2023-03-03T08:09:47.932Z,5.25
2023-03-03T08:12:29.856Z,5.00
2023-03-03T08:14:57.991Z,5.00
2023-03-03T08:17:29.856Z,5.25
2023-03-03T08:19:57.801Z,5.00
2023-03-03T08:22:31.469Z,6.00
2023-03-03T08:24:59.350Z,5.75
2023-03-03T08:27:27.356Z,4.75
2023-03-03T08:29:55.308Z,5.00
2023-03-03T08:32:23.599Z,6.00
2023-03-03T08:34:52.979Z,5.25
2023-03-03T08:37:20.963Z,5.75
2023-03-03T08:39:48.854Z,5.75
2023-03-03T08:42:17.050Z,6.00
2023-03-03T08:44:44.988Z,6.00
2023-03-03T08:47:13.182Z,5.00
2023-03-03T08:49:41.095Z,4.50
2023-03-03T08:52:10.681Z,4.00
2023-03-03T08:54:38.585Z,5.00
2023-03-03T08:57:06.444Z,5.25
2023-03-03T08:59:37.791Z,5.75
2023-03-03T09:02:06.220Z,4.75
2023-03-03T09:04:34.258Z,4.50
2023-03-03T09:07:02.154Z,5.25
2023-03-03T09:09:31.398Z,5.00
2023-03-03T09:12:00.265Z,5.00
2023-03-03T09:14:29.602Z,5.00
2023-03-03T09:16:57.731Z,5.00
2023-03-03T09:19:27.414Z,5.00
2023-03-03T09:21:56.916Z,5.00
2023-03-03T09:24:28.395Z,5.00
2023-03-03T09:26:58.899Z,4.00
2023-03-03T09:29:29.019Z,4.00
2023-03-03T09:31:58.784Z,5.00
2023-03-03T09:34:28.329Z,5.00
2023-03-03T09:36:56.560Z,5.00
2023-03-03T09:39:25.441Z,4.00
2023-03-03T09:42:27.249Z,4.25
2023-03-03T09:45:22.943Z,5.00
2023-03-03T09:48:09.889Z,5.00
2023-03-03T09:50:41.398Z,5.75
2023-03-03T09:53:17.089Z,5.75
2023-03-03T09:55:49.428Z,5.00
2023-03-03T09:58:31.994Z,5.75
2023-03-03T10:01:04.432Z,4.25
2023-03-03T10:03:54.120Z,4.75
2023-03-03T10:06:25.246Z,6.00
2023-03-03T10:09:10.685Z,5.00
2023-03-03T10:11:41.837Z,4.00
2023-03-03T10:14:34.393Z,5.00
2023-03-03T10:17:11.260Z,4.00
2023-03-03T10:19:40.398Z,5.00
2023-03-03T10:22:31.173Z,5.00
2023-03-03T10:25:10.233Z,5.00
2023-03-03T10:27:56.435Z,4.00
2023-03-03T10:30:39.832Z,5.00
2023-03-03T10:33:14.077Z,5.00
2023-03-03T10:36:05.959Z,5.00
2023-03-03T10:38:40.814Z,5.00
2023-03-03T10:41:17.215Z,5.00
2023-03-03T10:44:11.633Z,5.75
2023-03-03T10:46:54.480Z,5.25
2023-03-03T10:49:28.644Z,4.25
2023-03-03T10:52:25.440Z,5.50
2023-03-03T10:55:02.086Z,5.50
2023-03-03T10:57:32.715Z,5.75
2023-03-03T11:00:22.789Z,5.00
2023-03-03T11:03:01.793Z,5.00
2023-03-03T11:05:34.893Z,5.25
2023-03-03T11:08:04.668Z,5.00
2023-03-03T11:10:43.612Z,5.00
2023-03-03T11:13:15.142Z,5.00
2023-03-03T11:16:00.914Z,6.00
2023-03-03T11:18:35.773Z,6.00
2023-03-03T11:21:08.714Z,5.00
2023-03-03T11:24:03.721Z,6.00
2023-03-03T11:26:51.619Z,5.00
2023-03-03T11:29:34.847Z,5.75
2023-03-03T11:32:06.102Z,4.25
2023-03-03T11:34:54.946Z,5.00
2023-03-03T11:37:24.948Z,5.25
2023-03-03T11:39:53.397Z,5.00
2023-03-03T11:42:24.862Z,5.00
2023-03-03T11:44:54.033Z,5.00
2023-03-03T11:47:24.522Z,5.75
2023-03-03T11:49:56.896Z,5.75
2023-03-03T11:52:28.647Z,6.00
2023-03-03T11:54:59.042Z,6.00
2023-03-03T11:57:29.185Z,5.00
2023-03-03T12:00:02.081Z,5.00
2023-03-03T12:02:53.949Z,5.75
2023-03-03T12:05:38.298Z,4.50
2023-03-03T12:08:09.601Z,5.00
2023-03-03T12:10:39.172Z,5.00
2023-03-03T12:13:11.320Z,5.00
2023-03-03T12:15:41.961Z,5.00
2023-03-03T12:18:20.154Z,5.75
2023-03-03T12:20:52.997Z,5.00
2023-03-03T12:23:37.969Z,5.75
2023-03-03T12:26:07.599Z,5.75
2023-03-03T12:28:37.611Z,6.75
2023-03-03T12:31:15.383Z,6.00
2023-03-03T12:33:54.164Z,6.50
2023-03-03T12:36:46.613Z,6.50
2023-03-03T12:39:32.659Z,5.25
2023-03-03T12:42:06.207Z,5.75
2023-03-03T12:44:36.836Z,6.00
2023-03-03T12:47:07.409Z,6.00
2023-03-03T12:49:44.050Z,5.00
2023-03-03T12:52:21.871Z,5.50
2023-03-03T12:54:58.673Z,6.00
2023-03-03T12:57:30.355Z,6.00
2023-03-03T13:00:13.194Z,5.75
2023-03-03T13:02:44.526Z,6.00
2023-03-03T13:05:20.797Z,6.00
2023-03-03T13:07:54.209Z,7.00
2023-03-03T13:10:24.947Z,7.00
2023-03-03T13:12:55.200Z,5.00
2023-03-03T13:15:31.665Z,7.00
2023-03-03T13:18:06.391Z,7.00
2023-03-03T13:20:39.667Z,5.00
2023-03-03T13:23:11.753Z,5.75
2023-03-03T13:25:45.752Z,7.00
2023-03-03T13:28:17.678Z,6.00
2023-03-03T13:30:49.194Z,7.50
2023-03-03T13:33:18.719Z,5.75
2023-03-03T13:35:47.374Z,7.25
2023-03-03T13:38:19.973Z,6.75
2023-03-03T13:40:50.134Z,7.00
2023-03-03T13:43:20.020Z,5.50
2023-03-03T13:46:07.468Z,6.50
2023-03-03T13:48:48.782Z,6.25
2023-03-03T13:51:22.743Z,6.00
2023-03-03T13:53:54.521Z,6.25
2023-03-03T13:56:32.065Z,6.00
2023-03-03T13:59:04.598Z,6.00
2023-03-03T14:01:35.632Z,6.25
2023-03-03T14:04:10.373Z,6.00
2023-03-03T14:06:39.047Z,6.50
2023-03-03T14:09:15.390Z,5.75
2023-03-03T14:11:47.884Z,5.50
2023-03-03T14:14:42.974Z,5.00
2023-03-03T14:17:16.007Z,6.75
2023-03-03T14:19:45.435Z,7.00
2023-03-03T14:22:23.611Z,6.75
2023-03-03T14:25:02.559Z,6.00
2023-03-03T14:27:35.854Z,7.00
2023-03-03T14:30:32.019Z,6.00
2023-03-03T14:33:06.414Z,7.00
2023-03-03T14:35:35.721Z,7.00
2023-03-03T14:38:04.492Z,6.50
2023-03-03T14:40:35.158Z,6.25
2023-03-03T14:43:03.806Z,7.50
2023-03-03T14:45:34.620Z,6.50
2023-03-03T14:48:07.069Z,7.00
2023-03-03T14:50:36.998Z,7.75
2023-03-03T14:53:15.250Z,7.00
2023-03-03T14:55:45.502Z,7.00
2023-03-03T14:58:26.917Z,6.75
2023-03-03T15:01:14.588Z,6.00
2023-03-03T15:03:47.881Z,7.00
2023-03-03T15:06:28.224Z,6.00
2023-03-03T15:08:56.214Z,5.75
2023-03-03T15:11:29.205Z,7.00
2023-03-03T15:14:10.921Z,7.00
2023-03-03T15:16:40.102Z,7.00
2023-03-03T15:19:46.295Z,7.00
2023-03-03T15:22:19.705Z,7.25
2023-03-03T15:24:51.054Z,6.00
2023-03-03T15:27:23.004Z,6.25
2023-03-03T15:29:57.491Z,6.25
2023-03-03T15:32:27.992Z,6.25
2023-03-03T15:35:00.234Z,6.00
2023-03-03T15:37:39.441Z,6.00
2023-03-03T15:40:15.248Z,6.00
2023-03-03T15:42:49.040Z,6.75
2023-03-03T15:45:21.342Z,6.75
2023-03-03T15:48:07.893Z,6.00
2023-03-03T15:50:45.436Z,6.00
2023-03-03T15:53:20.671Z,6.00
2023-03-03T15:55:58.065Z,7.00
2023-03-03T15:59:04.770Z,6.00
2023-03-03T16:01:33.774Z,6.00
2023-03-03T16:04:02.488Z,7.00
2023-03-03T16:06:37.275Z,7.75
2023-03-03T16:09:09.213Z,7.00
2023-03-03T16:11:40.481Z,6.75
2023-03-03T16:14:26.248Z,6.50
2023-03-03T16:16:55.638Z,5.75
2023-03-03T16:19:30.653Z,6.00
2023-03-03T16:22:28.893Z,7.25
2023-03-03T16:25:04.100Z,7.25
2023-03-03T16:27:35.125Z,7.00
2023-03-03T16:30:12.032Z,6.00
2023-03-03T16:32:41.916Z,6.75
2023-03-03T16:35:20.423Z,6.50
2023-03-03T16:37:55.444Z,7.00
2023-03-03T16:40:24.980Z,6.50
2023-03-03T16:42:57.010Z,6.75
2023-03-03T16:45:27.917Z,6.00
2023-03-03T16:48:15.689Z,6.50
2023-03-03T16:50:47.555Z,7.00
2023-03-03T16:53:25.754Z,7.00
2023-03-03T16:55:58.898Z,8.00
2023-03-03T16:58:32.161Z,7.00
2023-03-03T17:01:05.311Z,7.00
2023-03-03T17:03:40.145Z,6.25
2023-03-03T17:06:13.150Z,6.00
2023-03-03T17:09:31.573Z,5.00
2023-03-03T17:12:07.424Z,7.00
2023-03-03T17:14:42.290Z,6.75
2023-03-03T17:17:14.501Z,6.25
2023-03-03T17:19:50.027Z,6.50
2023-03-03T17:22:20.957Z,7.50
2023-03-03T17:24:53.603Z,6.00
2023-03-03T17:27:24.888Z,6.25
2023-03-03T17:29:57.864Z,5.25
2023-03-03T17:32:34.377Z,6.00
2023-03-03T17:35:15.407Z,7.00
2023-03-03T17:37:46.193Z,6.50
2023-03-03T17:40:18.999Z,6.00
2023-03-03T17:42:49.460Z,5.75
2023-03-03T17:45:18.267Z,5.50
2023-03-03T17:47:59.615Z,5.50
2023-03-03T17:50:46.582Z,7.00
2023-03-03T17:53:35.439Z,6.00
2023-03-03T17:56:07.586Z,6.00
2023-03-03T17:58:49.231Z,6.50
2023-03-03T18:01:21.976Z,6.00
2023-03-03T18:04:12.092Z,6.50
2023-03-03T18:07:04.485Z,7.00
2023-03-03T18:09:40.646Z,6.75
2023-03-03T18:12:13.665Z,7.00
2023-03-03T18:15:02.525Z,7.00
2023-03-03T18:17:36.399Z,6.25
2023-03-03T18:20:36.983Z,6.25
2023-03-03T18:23:27.586Z,6.00
2023-03-03T18:25:57.953Z,7.00
2023-03-03T18:28:46.907Z,7.00
2023-03-03T18:31:23.477Z,7.00
2023-03-03T18:34:09.598Z,6.00
2023-03-03T18:36:41.027Z,7.00
2023-03-03T18:39:15.135Z,7.00
2023-03-03T18:42:09.446Z,7.00
2023-03-03T18:44:37.661Z,6.25
2023-03-03T18:47:06.647Z,9.00
2023-03-03T18:49:58.027Z,8.75
2023-03-03T18:52:28.973Z,8.50
2023-03-03T18:55:26.606Z,10.00
2023-03-03T18:58:29.001Z,9.00
2023-03-03T19:00:59.895Z,10.00
2023-03-03T19:03:34.261Z,11.00
2023-03-03T19:06:02.711Z,9.25
2023-03-03T19:08:45.305Z,9.00
2023-03-03T19:11:33.549Z,9.50
2023-03-03T19:14:19.420Z,10.50
2023-03-03T19:16:47.695Z,9.00
2023-03-03T19:19:16.678Z,9.25
2023-03-03T19:21:48.214Z,10.00
2023-03-03T19:24:33.682Z,10.75
2023-03-03T19:27:29.662Z,8.75
2023-03-03T19:30:31.334Z,9.00
2023-03-03T19:33:08.247Z,10.00
2023-03-03T19:35:39.174Z,9.00
2023-03-03T19:38:14.623Z,9.50
2023-03-03T19:40:47.609Z,10.00
2023-03-03T19:43:20.934Z,9.75
2023-03-03T19:45:59.049Z,10.00
2023-03-03T19:48:31.021Z,9.00
2023-03-03T19:51:01.645Z,11.00
2023-03-03T19:53:33.200Z,9.25
2023-03-03T19:56:11.296Z,9.00
2023-03-03T19:58:43.534Z,9.00
2023-03-03T20:01:17.678Z,10.75
2023-03-03T20:04:11.239Z,9.00
2023-03-03T20:06:45.139Z,11.00
2023-03-03T20:09:21.042Z,10.00
2023-03-03T20:12:01.370Z,10.50
2023-03-03T20:14:46.219Z,9.25
2023-03-03T20:17:33.223Z,11.00
2023-03-03T20:20:04.091Z,10.00
2023-03-03T20:22:36.696Z,11.00
2023-03-03T20:25:10.430Z,11.00
2023-03-03T20:27:45.996Z,10.75
2023-03-03T20:30:18.969Z,10.25
2023-03-03T20:32:53.954Z,9.75
2023-03-03T20:35:28.228Z,11.00
2023-03-03T20:38:00.144Z,12.00
2023-03-03T20:40:31.648Z,10.50
2023-03-03T20:43:06.442Z,12.00
2023-03-03T20:45:42.839Z,12.00
2023-03-03T20:48:18.392Z,12.25
2023-03-03T20:50:52.134Z,10.75
2023-03-03T20:53:24.296Z,11.00
2023-03-03T20:55:58.764Z,12.25
2023-03-03T20:58:29.908Z,13.00
2023-03-03T21:01:04.186Z,12.00
2023-03-03T21:03:34.186Z,11.00
2023-03-03T21:06:03.966Z,12.00
2023-03-03T21:08:42.472Z,12.00
2023-03-03T21:11:10.761Z,12.25
2023-03-03T21:13:41.241Z,13.50
2023-03-03T21:16:12.751Z,13.00
2023-03-03T21:18:40.718Z,13.00
2023-03-03T21:21:09.539Z,13.00
2023-03-03T21:23:37.531Z,12.50
2023-03-03T21:26:05.701Z,13.75
2023-03-03T21:28:34.217Z,13.00
2023-03-03T21:31:11.782Z,14.00
2023-03-03T21:33:41.446Z,13.00
2023-03-03T21:36:09.648Z,13.00
2023-03-03T21:38:39.033Z,13.00
2023-03-03T21:41:07.448Z,13.25
2023-03-03T21:43:35.562Z,12.25
2023-03-03T21:46:03.591Z,12.50
2023-03-03T21:48:33.177Z,13.00
2023-03-03T21:51:01.371Z,14.00
2023-03-03T21:53:30.614Z,15.00
2023-03-03T21:55:58.558Z,13.00
2023-03-03T21:58:26.630Z,11.50
2023-03-03T22:00:55.269Z,13.50
2023-03-03T22:03:23.959Z,14.75
2023-03-03T22:05:53.658Z,14.00
2023-03-03T22:08:23.711Z,14.00
2023-03-03T22:10:55.971Z,14.50
2023-03-03T22:13:27.335Z,15.50
2023-03-03T22:15:55.405Z,14.50
2023-03-03T22:18:23.431Z,15.50
2023-03-03T22:20:53.065Z,14.75
2023-03-03T22:23:20.976Z,14.25
2023-03-03T22:25:49.017Z,15.25
2023-03-03T22:28:16.989Z,15.00
2023-03-03T22:30:45.492Z,16.00
2023-03-03T22:33:13.415Z,15.75
2023-03-03T22:35:41.368Z,14.75
2023-03-03T22:38:10.909Z,14.75
2023-03-03T22:40:39.209Z,15.00
2023-03-03T22:43:07.460Z,14.50
2023-03-03T22:45:35.529Z,14.50
2023-03-03T22:48:03.461Z,13.25
2023-03-03T22:50:31.405Z,16.00
2023-03-03T22:52:59.357Z,15.00
2023-03-03T22:55:29.328Z,14.00
2023-03-03T22:57:57.296Z,14.50
2023-03-03T23:00:25.257Z,15.00
2023-03-03T23:02:53.266Z,14.50
2023-03-03T23:05:21.240Z,15.50
2023-03-03T23:07:49.215Z,16.00
2023-03-03T23:10:17.180Z,15.25
2023-03-03T23:12:46.591Z,15.00
2023-03-03T23:15:14.517Z,15.00
2023-03-03T23:17:42.638Z,13.25
2023-03-03T23:20:11.641Z,15.00
2023-03-03T23:22:39.558Z,13.00
2023-03-03T23:25:08.885Z,13.00
2023-03-03T23:27:36.881Z,14.25
2023-03-03T23:30:08.447Z,13.00
2023-03-03T23:32:36.417Z,14.25
2023-03-03T23:35:04.443Z,14.00
2023-03-03T23:37:32.399Z,14.25
2023-03-03T23:40:00.376Z,15.75
2023-03-03T23:42:30.637Z,13.00
2023-03-03T23:44:58.635Z,14.00
2023-03-03T23:47:28.041Z,14.00
2023-03-03T23:49:56.015Z,13.75
2023-03-03T23:52:24.257Z,14.00
2023-03-03T23:54:53.132Z,13.75
2023-03-03T23:57:21.139Z,13.00
2023-03-03T23:59:49.169Z,12.50
